Time;durP1;ratioP1;P1;durP2;ratioP2;P2;SDS_P1;SDS_P2;PMS_P1;PMS_P2;Temp;Humidity;BMP_temperature;BMP_pressure;BME280_temperature;BME280_humidity;BME280_pressure;Samples;Min_cycle;Max_cycle;Signal;HPM_P1;HPM_P2
2023/12/17 00:00:56;;;;;;;;;;;;;;;17.99;61.02;100708.34;2090134;28;20094;-66
2023/12/17 00:01:57;;;;;;;3.35;0.70;;;;;;;18.03;61.31;100704.38;2089939;28;19931;-65
2023/12/17 00:02:58;;;;;;;;;;;;;;;17.99;61.15;100707.50;2090851;28;20132;-64
2023/12/17 00:03:59;;;;;;;;;;;;;;;17.92;61.26;100701.03;2088194;28;20418;-64
2023/12/17 00:05:01;;;;;;;3.67;1.20;;;;;;;17.99;61.27;100702.97;2089749;28;19964;-65
2023/12/17 00:06:02;;;;;;;3.22;0.98;;;;;;;18.03;60.90;100701.69;2089566;28;20330;-66
2023/12/17 00:07:04;;;;;;;4.85;0.77;;;;;;;18.07;60.91;100697.69;2090857;28;20052;-66
2023/12/17 00:08:05;;;;;;;3.78;1.30;;;;;;;18.08;60.61;100694.03;2088857;28;20048;-66
2023/12/17 00:09:07;;;;;;;;;;;;;;;18.00;61.17;100698.47;2090243;28;20051;-66
2023/12/17 00:10:08;;;;;;;1.77;0.90;;;;;;;18.04;60.92;100694.47;2088109;28;20410;-65
2023/12/17 00:11:10;;;;;;;4.85;0.93;;;;;;;18.06;60.89;100703.22;2081980;28;20045;-65
2023/12/17 00:12:11;;;;;;;1.77;1.00;;;;;;;18.06;60.80;100700.53;2088609;28;20049;-64
2023/12/17 00:13:12;;;;;;;;;;;;;;;17.99;61.15;100684.16;2089399;28;20718;-64
2023/12/17 00:14:14;;;;;;;5.88;1.25;;;;;;;17.99;61.19;100694.06;2089673;28;19928;-65
2023/12/17 00:15:15;;;;;;;3.97;0.70;;;;;;;18.01;60.95;100684.88;2090700;28;20040;-65
2023/12/17 00:16:18;;;;;;;;;;;;;;;17.93;61.27;100690.16;2092793;28;20463;-65
2023/12/17 00:17:20;;;;;;;3.80;0.93;;;;;;;17.93;61.37;100686.63;2090046;28;19920;-66
2023/12/17 00:18:22;;;;;;;5.30;1.10;;;;;;;17.97;61.20;100694.22;2091269;28;20051;-66
2023/12/17 00:19:23;;;;;;;5.18;2.03;;;;;;;18.00;61.29;100691.25;2089648;28;20048;-66
2023/12/17 00:20:25;;;;;;;;;;;;;;;17.89;61.30;100687.94;2088078;28;20124;-64
2023/12/17 00:21:25;;;;;;;;;;;;;;;17.84;61.97;100681.16;2089176;28;19931;-66
2023/12/17 00:22:27;;;;;;;2.67;0.95;;;;;;;17.89;61.68;100683.41;2087693;28;19965;-65
2023/12/17 00:23:28;;;;;;;6.28;1.58;;;;;;;17.93;61.46;100683.94;2088265;28;20047;-66
2023/12/17 00:24:28;;;;;;;;;;;;;;;17.84;61.86;100675.78;2086206;28;20564;-65
2023/12/17 00:25:30;;;;;;;9.80;1.07;;;;;;;17.88;61.74;100665.56;2089771;28;20007;-66
2023/12/17 00:26:31;;;;;;;10.00;1.70;;;;;;;17.91;61.76;100669.81;2088647;28;20044;-66
2023/12/17 00:27:33;;;;;;;3.25;1.65;;;;;;;17.92;61.58;100675.03;2089572;28;20045;-65
2023/12/17 00:28:34;;;;;;;3.83;1.25;;;;;;;17.94;61.79;100673.06;2088001;28;20090;-65
2023/12/17 00:29:36;;;;;;;;;;;;;;;17.84;61.99;100686.50;2089562;28;20102;-65
2023/12/17 00:30:36;;;;;;;;;;;;;;;17.74;62.33;100684.84;2086986;28;20610;-66
2023/12/17 00:31:40;;;;;;;8.75;1.13;;;;;;;17.78;62.12;100686.25;2090185;28;19962;-66
2023/12/17 00:32:41;;;;;;;6.15;0.88;;;;;;;17.82;62.09;100687.66;2088807;28;20094;-65
2023/12/17 00:33:42;;;;;;;;;;;;;;;17.74;62.18;100695.56;2089671;28;20523;-65
2023/12/17 00:34:43;;;;;;;;;;;;;;;17.71;62.26;100695.88;2087693;28;19936;-64
2023/12/17 00:35:44;;;;;;;3.33;0.80;;;;;;;17.73;62.34;100684.00;2086036;28;20509;-66
2023/12/17 00:36:45;;;;;;;;;;;;;;;17.68;62.63;100682.75;2089382;28;20083;-66
2023/12/17 00:37:46;;;;;;;;;;;;;;;17.65;62.47;100683.88;2091572;28;20429;-65
2023/12/17 00:38:48;;;;;;;1.38;0.80;;;;;;;17.72;62.45;100687.69;2088759;28;19927;-65
2023/12/17 00:39:49;;;;;;;2.25;0.85;;;;;;;17.80;62.14;100684.25;2089813;28;20048;-66
2023/12/17 00:40:50;;;;;;;;;;;;;;;17.74;62.42;100685.66;2086048;28;20516;-64
2023/12/17 00:41:51;;;;;;;5.38;1.00;;;;;;;17.77;62.31;100677.31;2090714;28;19924;-65
2023/12/17 00:42:52;;;;;;;;;;;;;;;17.70;62.26;100672.72;2089301;28;20135;-65
2023/12/17 00:43:54;;;;;;;4.90;1.33;;;;;;;17.74;62.37;100676.78;2089869;28;19920;-65
2023/12/17 00:44:54;;;;;;;4.57;0.77;;;;;;;17.78;62.39;100681.75;2089322;28;20283;-65
2023/12/17 00:45:55;;;;;;;;;;;;;;;17.68;62.54;100680.91;2090796;28;20064;-64
2023/12/17 00:46:59;;;;;;;4.43;1.63;;;;;;;17.75;62.59;100670.44;2091137;28;20333;-65
2023/12/17 00:48:00;;;;;;;2.08;1.15;;;;;;;17.76;62.34;100678.31;2087778;28;20107;-64
2023/12/17 00:49:02;;;;;;;;;;;;;;;17.68;62.73;100674.69;2086671;28;20966;-66
2023/12/17 00:50:03;;;;;;;;;;;;;;;17.58;62.67;100672.91;2086519;28;19929;-66
2023/12/17 00:51:05;;;;;;;2.22;1.20;;;;;;;17.67;62.79;100662.28;2084072;28;19951;-66
2023/12/17 00:52:06;;;;;;;3.55;1.10;;;;;;;17.70;62.61;100662.81;2088490;28;20057;-66
2023/12/17 00:53:08;;;;;;;;;;;;;;;17.63;62.65;100664.41;2090580;28;20137;-66
2023/12/17 00:54:08;;;;;;;;;;;;;;;17.53;62.83;100667.13;2089479;28;19928;-65
2023/12/17 00:55:10;;;;;;;1.77;0.60;;;;;;;17.61;62.98;100655.66;2091745;28;19951;-66
2023/12/17 00:56:11;;;;;;;3.42;0.73;;;;;;;17.68;62.93;100653.22;2090775;28;20096;-66
2023/12/17 00:57:13;;;;;;;;;;;;;;;17.61;62.69;100647.63;2089315;28;20151;-65
2023/12/17 00:58:14;;;;;;;3.38;1.00;;;;;;;17.64;62.94;100642.78;2088851;28;20023;-64
2023/12/17 00:59:15;;;;;;;;;;;;;;;17.58;62.95;100638.03;2086406;28;20583;-66
2023/12/17 01:00:16;;;;;;;;;;;;;;;17.53;62.94;100634.94;2087310;28;20415;-66
2023/12/17 01:01:18;;;;;;;2.28;1.73;;;;;;;17.60;62.88;100651.28;2087775;28;20004;-65
2023/12/17 01:02:20;;;;;;;1.27;0.90;;;;;;;17.65;62.89;100649.00;2088124;28;20442;-65
2023/12/17 01:03:22;;;;;;;1.20;0.80;;;;;;;17.66;62.72;100658.72;2086558;28;20044;-66
2023/12/17 01:04:23;;;;;;;4.50;0.88;;;;;;;17.69;62.76;100650.41;2088193;28;20053;-66
2023/12/17 01:05:24;;;;;;;;;;;;;;;17.60;62.94;100657.47;2087557;28;20489;-65
2023/12/17 01:06:25;;;;;;;;;;;;;;;17.52;63.20;100654.69;2085387;28;19927;-66
2023/12/17 01:07:27;;;;;;;6.13;1.17;;;;;;;17.56;63.10;100653.41;2086834;28;20044;-65
2023/12/17 01:08:28;;;;;;;5.75;0.98;;;;;;;17.62;62.84;100643.94;2090099;28;20454;-66
2023/12/17 01:09:29;;;;;;;;;;;;;;;17.54;63.30;100646.50;2087421;28;20137;-66
2023/12/17 01:10:30;;;;;;;8.63;0.63;;;;;;;17.59;63.05;100645.06;2087155;28;20379;-64
2023/12/17 01:11:32;;;;;;;;;;;;;;;17.51;63.11;100631.53;2089310;28;20080;-66
2023/12/17 01:12:32;;;;;;;;;;;;;;;17.48;63.11;100637.22;2088700;28;19924;-66
2023/12/17 01:13:34;;;;;;;3.22;0.80;;;;;;;17.53;63.11;100637.63;2087001;28;19987;-65
2023/12/17 01:14:35;;;;;;;1.60;0.57;;;;;;;17.59;62.87;100633.50;2085480;28;20064;-66
2023/12/17 01:15:37;;;;;;;;;;;;;;;17.52;63.05;100635.91;2089062;28;20076;-65
2023/12/17 01:16:37;;;;;;;;;;;;;;;17.44;63.44;100635.84;2090376;28;20014;-65
2023/12/17 01:17:41;;;;;;;1.27;0.45;;;;;;;17.52;63.37;100632.38;2088849;28;19921;-65
2023/12/17 01:18:41;;;;;;;1.40;0.80;;;;;;;17.56;63.17;100631.13;2091173;28;20048;-66
2023/12/17 01:19:43;;;;;;;;;;;;;;;17.50;63.34;100637.06;2089646;28;20131;-65
2023/12/17 01:20:44;;;;;;;;;;;;;;;17.40;63.60;100637.94;2092190;28;19935;-65
2023/12/17 01:21:45;;;;;;;3.87;1.03;;;;;;;17.47;63.39;100638.22;2091312;28;20472;-65
2023/12/17 01:22:46;;;;;;;1.90;0.63;;;;;;;17.54;63.27;100641.97;2090333;28;20053;-66
2023/12/17 01:23:47;;;;;;;;;;;;;;;17.45;63.28;100637.50;2090843;28;20482;-65
2023/12/17 01:24:52;;;;;;;4.50;1.00;;;;;;;17.47;63.28;100637.34;2087713;28;19982;-66
2023/12/17 01:25:53;;;;;;;2.25;0.80;;;;;;;17.53;63.19;100648.34;2090064;28;20441;-66
2023/12/17 01:26:54;;;;;;;;;;;;;;;17.43;63.30;100648.38;2091284;28;20056;-66
2023/12/17 01:27:55;;;;;;;;;;;;;;;17.35;63.71;100659.00;2088806;28;19928;-66
2023/12/17 01:28:57;;;;;;;3.35;0.73;;;;;;;17.42;63.44;100645.84;2087487;28;19968;-65
2023/12/17 01:29:58;;;;;;;4.82;0.80;;;;;;;17.47;63.20;100648.06;2090787;28;20048;-66
2023/12/17 01:31:00;;;;;;;3.38;0.68;;;;;;;17.47;63.28;100645.41;2090306;28;20065;-65
2023/12/17 01:32:01;;;;;;;3.30;0.85;;;;;;;17.50;63.36;100640.59;2089410;28;20053;-64
2023/12/17 01:33:04;;;;;;;;;;;;;;;17.41;63.43;100638.78;2091220;28;20048;-65
2023/12/17 01:34:06;;;;;;;5.95;1.13;;;;;;;17.46;63.49;100638.34;2090044;28;19928;-65
2023/12/17 01:35:09;;;;;;;2.63;0.73;;;;;;;17.46;63.42;100636.50;2090764;28;20114;-66
2023/12/17 01:36:10;;;;;;;2.30;0.93;;;;;;;17.47;63.43;100629.31;2090872;28;20163;-66
2023/12/17 01:37:11;;;;;;;;;;;;;;;17.38;63.98;100626.53;2092343;28;20357;-65
2023/12/17 01:38:13;;;;;;;1.33;0.70;;;;;;;17.40;63.53;100634.41;2089530;28;20538;-65
2023/12/17 01:39:15;;;;;;;1.45;0.80;;;;;;;17.43;63.54;100634.13;2091330;28;20056;-66
2023/12/17 01:40:16;;;;;;;1.15;0.73;;;;;;;17.46;63.70;100631.13;2087654;28;20063;-66
2023/12/17 01:41:17;;;;;;;;;;;;;;;17.34;63.75;100635.84;2087852;28;20496;-65
2023/12/17 01:42:18;;;;;;;4.53;0.90;;;;;;;17.39;63.78;100635.41;2088022;28;19932;-65
2023/12/17 01:43:20;;;;;;;;;;;;;;;17.30;63.82;100622.88;2091068;28;20229;-65
2023/12/17 01:44:22;;;;;;;4.10;1.55;;;;;;;17.33;63.89;100628.81;2091850;28;19925;-66
2023/12/17 01:45:24;;;;;;;4.82;0.80;;;;;;;17.37;63.60;100632.88;2090839;28;20087;-66
2023/12/17 01:46:26;;;;;;;3.65;1.73;;;;;;;17.40;63.74;100634.41;2092910;28;20052;-66
2023/12/17 01:47:28;;;;;;;3.30;0.57;;;;;;;17.41;63.55;100628.06;2090839;28;20080;-65
2023/12/17 01:48:31;;;;;;;5.07;1.05;;;;;;;17.38;63.84;100642.63;2091400;28;20048;-66
2023/12/17 01:49:33;;;;;;;3.65;1.15;;;;;;;17.36;63.66;100633.03;2086944;28;20048;-64
2023/12/17 01:50:35;;;;;;;2.72;0.73;;;;;;;17.42;63.67;100627.91;2088959;28;20048;-65
2023/12/17 01:51:38;;;;;;;0.98;0.70;;;;;;;17.40;63.70;100623.69;2091115;28;20048;-66
2023/12/17 01:52:39;;;;;;;1.02;0.60;;;;;;;17.39;63.71;100638.09;2086179;28;20052;-65
2023/12/17 01:53:41;;;;;;;3.38;0.98;;;;;;;17.37;63.95;100638.25;2089307;28;20504;-64
2023/12/17 01:54:42;;;;;;;1.20;0.52;;;;;;;17.34;63.75;100646.59;2091312;28;20522;-66
2023/12/17 01:55:46;;;;;;;;;;;;;;;17.30;63.95;100655.06;2092015;28;20139;-64
2023/12/17 01:56:47;;;;;;;1.85;0.75;;;;;;;17.32;64.08;100653.09;2092214;28;19924;-66
2023/12/17 01:57:49;;;;;;;4.20;0.75;;;;;;;17.34;63.82;100651.09;2089491;28;20063;-65
2023/12/17 01:58:50;;;;;;;1.10;0.57;;;;;;;17.37;63.75;100656.19;2089326;28;20447;-66
2023/12/17 01:59:53;;;;;;;1.20;0.70;;;;;;;17.38;63.83;100648.00;2088915;28;20059;-65
2023/12/17 02:00:54;;;;;;;6.93;0.70;;;;;;;17.39;64.16;100648.84;2088272;28;20052;-66
2023/12/17 02:01:57;;;;;;;2.33;0.52;;;;;;;17.39;63.78;100648.84;2089434;28;20068;-66
2023/12/17 02:02:58;;;;;;;1.52;0.80;;;;;;;17.33;63.73;100655.63;2085629;28;20419;-64
2023/12/17 02:04:01;;;;;;;;;;;;;;;17.23;64.47;100649.44;2087292;28;20131;-65
2023/12/17 02:05:05;;;;;;;2.65;0.90;;;;;;;17.26;64.17;100649.16;2088952;28;19936;-64
2023/12/17 02:06:08;;;;;;;4.85;0.77;;;;;;;17.28;63.96;100649.84;2090905;28;20044;-66
2023/12/17 02:07:10;;;;;;;2.00;0.75;;;;;;;17.28;63.94;100647.16;2085649;28;20522;-65
2023/12/17 02:08:11;;;;;;;4.38;0.90;;;;;;;17.26;64.10;100649.16;2087044;28;20041;-65
2023/12/17 02:09:13;;;;;;;;;;;;;;;17.15;64.43;100647.47;2090474;28;20123;-65
2023/12/17 02:10:13;;;;;;;;;;;;;;;17.09;64.63;100650.75;2087000;28;19924;-64
2023/12/17 02:11:15;;;;;;;1.55;0.93;;;;;;;17.18;64.50;100651.72;2088968;28;20146;-66
2023/12/17 02:12:24;;;;;;;2.90;0.63;;;;;;;17.20;64.83;100647.91;2088383;28;20052;-66
2023/12/17 02:13:26;;;;;;;2.28;0.70;;;;;;;17.26;64.42;100656.34;2088175;28;20794;-66
2023/12/17 02:14:26;;;;;;;1.58;0.52;;;;;;;17.26;64.46;100643.78;2089442;28;20446;-66
2023/12/17 02:15:28;;;;;;;;;;;;;;;17.16;64.47;100640.28;2089576;28;20171;-67
2023/12/17 02:16:29;;;;;;;;;;;;;;;17.07;65.02;100650.03;2088525;28;19927;-65
2023/12/17 02:17:31;;;;;;;6.07;0.90;;;;;;;17.10;64.88;100647.06;2090179;28;19980;-65
2023/12/17 02:18:32;;;;;;;0.93;0.57;;;;;;;17.13;64.50;100638.75;2088700;28;20094;-65
2023/12/17 02:19:35;;;;;;;;;;;;;;;17.04;64.79;100639.59;2087870;28;20414;-65
2023/12/17 02:20:36;;;;;;;1.05;0.60;;;;;;;17.08;64.83;100641.03;2086704;28;20593;-64
2023/12/17 02:21:38;;;;;;;;;;;;;;;17.03;64.96;100637.09;2088301;28;20135;-65
2023/12/17 02:22:39;;;;;;;1.17;0.60;;;;;;;17.07;64.94;100641.16;2089858;28;19928;-65
2023/12/17 02:23:42;;;;;;;;;;;;;;;17.02;65.17;100641.59;2089708;28;20106;-65
2023/12/17 02:24:43;;;;;;;3.30;0.63;;;;;;;17.07;65.08;100644.69;2091257;28;19943;-65
2023/12/17 02:25:45;;;;;;;;;;;;;;;17.01;65.08;100644.41;2091269;28;20110;-65
2023/12/17 02:26:46;;;;;;;3.08;1.05;;;;;;;17.06;65.07;100652.88;2091518;28;19929;-65
2023/12/17 02:27:47;;;;;;;;;;;;;;;16.96;65.15;100658.25;2085530;28;20710;-65
2023/12/17 02:28:48;;;;;;;;;;;;;;;16.89;65.40;100657.16;2093657;28;19933;-65
2023/12/17 02:29:50;;;;;;;1.27;0.70;;;;;;;16.96;65.29;100652.88;2085047;28;20280;-65
2023/12/17 02:30:51;;;;;;;3.92;0.85;;;;;;;17.08;65.28;100654.44;2084831;28;20895;-65
2023/12/17 02:31:52;;;;;;;;;;;;;;;17.00;65.12;100648.94;2090740;28;20051;-66
2023/12/17 02:32:53;;;;;;;1.50;0.57;;;;;;;17.04;65.56;100654.84;2088687;28;20387;-66
2023/12/17 02:33:55;;;;;;;;;;;;;;;16.95;65.76;100651.19;2089405;28;20048;-65
2023/12/17 02:34:55;;;;;;;;;;;;;;;16.90;65.89;100648.09;2092352;28;19920;-65
2023/12/17 02:35:56;;;;;;;2.57;0.50;;;;;;;16.95;65.48;100649.34;2088286;28;19999;-64
2023/12/17 02:36:58;;;;;;;;;;;;;;;16.90;65.76;100653.47;2090768;28;20860;-66
2023/12/17 02:37:58;;;;;;;;;;;;;;;16.82;66.55;100645.28;2087334;28;20440;-67
2023/12/17 02:39:02;;;;;;;1.70;0.80;;;;;;;16.90;65.69;100645.41;2091619;28;19928;-65
2023/12/17 02:40:04;;;;;;;4.50;1.05;;;;;;;16.94;65.98;100644.16;2087444;28;20299;-65
2023/12/17 02:41:05;;;;;;;0.82;0.60;;;;;;;16.96;65.58;100642.16;2090409;28;20048;-64
2023/12/17 02:42:07;;;;;;;5.05;0.60;;;;;;;16.98;65.36;100641.03;2091135;28;20060;-65
2023/12/17 02:43:08;;;;;;;1.92;0.65;;;;;;;16.99;65.54;100636.50;2086110;28;20049;-65
2023/12/17 02:44:10;;;;;;;;;;;;;;;16.88;66.00;100648.25;2086984;28;20132;-65
2023/12/17 02:45:13;;;;;;;;;;;;;;;16.80;66.33;100642.78;2088055;28;19920;-65
2023/12/17 02:46:15;;;;;;;2.28;0.50;;;;;;;16.86;66.05;100647.56;2086977;28;19944;-65
2023/12/17 02:47:15;;;;;;;4.22;2.70;;;;;;;16.91;66.01;100647.09;2090808;28;20047;-65
2023/12/17 02:48:17;;;;;;;;;;;;;;;16.83;65.86;100638.97;2086582;28;20482;-64
2023/12/17 02:49:18;;;;;;;;;;;;;;;16.77;66.27;100636.81;2087529;28;20295;-64
2023/12/17 02:50:19;;;;;;;3.33;0.90;;;;;;;16.82;66.29;100639.94;2091311;28;19959;-64
2023/12/17 02:51:20;;;;;;;1.50;0.52;;;;;;;16.89;66.18;100641.06;2088851;28;20056;-65
2023/12/17 02:52:21;;;;;;;;;;;;;;;16.81;66.19;100638.25;2089381;28;20172;-66
2023/12/17 02:53:23;;;;;;;1.37;0.60;;;;;;;16.84;65.88;100632.59;2087899;28;19920;-65
2023/12/17 02:54:25;;;;;;;9.55;0.77;;;;;;;16.93;65.70;100645.13;2088373;28;20056;-64
2023/12/17 02:55:27;;;;;;;1.45;1.08;;;;;;;16.93;65.66;100640.59;2089449;28;21521;-65
2023/12/17 02:56:28;;;;;;;3.25;0.50;;;;;;;16.94;65.81;100644.16;2090562;28;20083;-65
2023/12/17 02:57:29;;;;;;;;;;;;;;;16.85;65.90;100645.00;2088196;28;20087;-66
2023/12/17 02:58:31;;;;;;;5.82;0.82;;;;;;;16.86;66.03;100644.88;2087404;28;19924;-64
2023/12/17 02:59:32;;;;;;;4.30;0.85;;;;;;;16.90;65.91;100637.38;2088846;28;20052;-65
2023/12/17 03:00:33;;;;;;;;;;;;;;;16.83;65.72;100638.97;2089794;28;20083;-65
2023/12/17 03:01:34;;;;;;;;;;;;;;;16.78;66.01;100633.19;2088057;28;20532;-64
2023/12/17 03:02:36;;;;;;;4.03;0.70;;;;;;;16.82;66.21;100631.88;2090909;28;19968;-66
2023/12/17 03:03:36;;;;;;;1.45;0.82;;;;;;;16.85;65.92;100626.25;2088674;28;20446;-66
2023/12/17 03:04:38;;;;;;;;;;;;;;;16.78;65.77;100625.13;2088776;28;20131;-66
2023/12/17 03:05:39;;;;;;;1.38;0.57;;;;;;;16.82;66.13;100618.50;2089889;28;19928;-66
2023/12/17 03:06:41;;;;;;;;;;;;;;;16.74;66.09;100620.03;2088458;28;20131;-65
2023/12/17 03:07:42;;;;;;;1.80;0.95;;;;;;;16.79;66.08;100621.47;2087633;28;19928;-66
2023/12/17 03:08:42;;;;;;;;;;;;;;;16.73;66.06;100628.22;2090375;28;20079;-66
2023/12/17 03:09:45;;;;;;;1.17;0.53;;;;;;;16.79;65.88;100624.97;2088563;28;19925;-66
2023/12/17 03:10:46;;;;;;;0.55;0.40;;;;;;;16.84;66.11;100619.19;2087857;28;20618;-65
2023/12/17 03:11:48;;;;;;;;;;;;;;;16.72;65.91;100627.38;2092799;28;20132;-65
2023/12/17 03:12:48;;;;;;;;;;;;;;;16.69;66.19;100626.81;2090835;28;19924;-65
2023/12/17 03:13:50;;;;;;;1.43;0.50;;;;;;;16.75;65.98;100615.53;2087771;28;20043;-66
2023/12/17 03:14:51;;;;;;;5.22;0.90;;;;;;;16.80;65.80;100620.47;2089650;28;20279;-65
2023/12/17 03:15:53;;;;;;;;;;;;;;;16.72;66.12;100622.00;2089948;28;20053;-66
2023/12/17 03:16:54;;;;;;;1.13;0.60;;;;;;;16.76;66.09;100622.56;2089257;28;19928;-64
2023/12/17 03:17:56;;;;;;;;;;;;;;;16.66;66.10;100619.91;2088505;28;20056;-64
2023/12/17 03:18:56;;;;;;;;;;;;;;;16.63;66.24;100616.66;2087096;28;19935;-65
2023/12/17 03:19:58;;;;;;;0.67;0.50;;;;;;;16.68;66.16;100615.22;2088124;28;20012;-65
2023/12/17 03:20:59;;;;;;;1.00;0.55;;;;;;;16.75;66.04;100610.16;2087960;28;20044;-65
2023/12/17 03:22:00;;;;;;;;;;;;;;;16.65;66.25;100604.78;2085659;28;20074;-65
2023/12/17 03:23:01;;;;;;;1.70;1.33;;;;;;;16.71;66.47;100612.25;2088362;28;20311;-65
2023/12/17 03:24:05;;;;;;;;;;;;;;;16.65;66.24;100612.84;2089456;28;20131;-64
2023/12/17 03:25:08;;;;;;;2.33;0.80;;;;;;;16.68;66.21;100607.19;2090029;28;19920;-65
2023/12/17 03:26:10;;;;;;;4.80;0.80;;;;;;;16.76;66.07;100609.16;2085468;28;20084;-63
2023/12/17 03:27:11;;;;;;;1.98;1.00;;;;;;;16.80;65.91;100607.94;2089898;28;20052;-64
2023/12/17 03:28:12;;;;;;;;;;;;;;;16.70;66.09;100593.66;2089454;28;20123;-64
2023/12/17 03:29:13;;;;;;;;;;;;;;;16.64;66.46;100594.25;2088512;28;19921;-65
2023/12/17 03:30:15;;;;;;;2.97;0.38;;;;;;;16.69;66.31;100591.97;2087721;28;20696;-65
2023/12/17 03:31:16;;;;;;;2.42;0.90;;;;;;;16.72;65.85;100587.16;2088563;28;20048;-65
2023/12/17 03:32:18;;;;;;;4.28;1.48;;;;;;;16.73;66.01;100591.53;2088484;28;20044;-65
2023/12/17 03:33:19;;;;;;;6.70;0.88;;;;;;;16.78;65.96;100598.34;2089929;28;20048;-66
2023/12/17 03:34:20;;;;;;;;;;;;;;;16.64;66.20;100595.06;2088545;28;20144;-65
2023/12/17 03:35:21;;;;;;;;;;;;;;;16.56;66.51;100602.97;2087922;28;19920;-65
2023/12/17 03:36:23;;;;;;;1.27;0.40;;;;;;;16.61;66.48;100610.59;2089550;28;19920;-65
2023/12/17 03:37:24;;;;;;;2.35;0.45;;;;;;;16.65;66.11;100606.63;2090165;28;20291;-65
2023/12/17 03:38:25;;;;;;;2.20;0.35;;;;;;;16.64;66.28;100605.81;2082911;28;20059;-65
2023/12/17 03:39:27;;;;;;;1.70;0.45;;;;;;;16.67;66.10;100610.03;2089302;28;20052;-65
2023/12/17 03:40:30;;;;;;;2.47;1.13;;;;;;;16.69;65.95;100603.53;2085958;28;20045;-65
2023/12/17 03:41:31;;;;;;;1.27;0.90;;;;;;;16.67;66.35;100600.16;2089293;28;20052;-65
2023/12/17 03:42:32;;;;;;;2.20;0.57;;;;;;;16.67;66.10;100602.81;2084284;28;20438;-65
2023/12/17 03:43:34;;;;;;;;;;;;;;;16.56;66.46;100599.47;2086561;28;20118;-65
2023/12/17 03:44:35;;;;;;;;;;;;;;;16.47;66.91;100601.16;2088157;28;19924;-65
2023/12/17 03:45:37;;;;;;;1.87;0.40;;;;;;;16.59;66.38;100594.66;2087174;28;20207;-65
2023/12/17 03:46:37;;;;;;;1.35;0.60;;;;;;;16.63;66.34;100603.25;2091826;28;20306;-66
2023/12/17 03:47:41;;;;;;;;;;;;;;;16.53;66.59;100604.09;2087640;28;20080;-66
2023/12/17 03:48:42;;;;;;;5.10;0.68;;;;;;;16.56;66.78;100605.66;2085669;28;19963;-65
2023/12/17 03:49:44;;;;;;;;;;;;;;;16.53;66.52;100608.63;2087853;28;20079;-65
2023/12/17 03:50:44;;;;;;;;;;;;;;;16.40;67.00;100600.88;2087324;28;19932;-66
2023/12/17 03:51:46;;;;;;;1.40;0.93;;;;;;;16.51;66.72;100610.59;2089762;28;20478;-65
2023/12/17 03:52:47;;;;;;;2.63;1.00;;;;;;;16.53;66.89;100604.09;2088749;28;20279;-65
2023/12/17 03:53:48;;;;;;;7.88;0.93;;;;;;;16.60;66.61;100599.03;2085301;28;20072;-66
2023/12/17 03:54:50;;;;;;;;;;;;;;;16.52;66.48;100598.91;2087758;28;20601;-65
2023/12/17 03:55:52;;;;;;;;;;;;;;;16.42;67.04;100606.94;2086910;28;20388;-65
2023/12/17 03:56:54;;;;;;;2.25;0.40;;;;;;;16.49;66.76;100593.81;2088518;28;19929;-65
2023/12/17 03:57:55;;;;;;;2.28;0.65;;;;;;;16.57;66.40;100598.47;2089081;28;20040;-65
2023/12/17 03:58:56;;;;;;;;;;;;;;;16.49;66.75;100599.16;2092866;28;20067;-65
2023/12/17 03:59:57;;;;;;;1.08;0.77;;;;;;;16.53;66.49;100603.28;2085302;28;19924;-66
2023/12/17 04:00:59;;;;;;;;;;;;;;;16.43;66.85;100597.91;2089574;28;20125;-66
2023/12/17 04:02:02;;;;;;;;;;;;;;;16.41;66.94;100604.38;2089438;28;20187;-64
2023/12/17 04:03:04;;;;;;;0.90;0.65;;;;;;;16.45;66.65;100606.66;2088509;28;19935;-65
2023/12/17 04:04:05;;;;;;;1.45;0.38;;;;;;;16.52;66.46;100615.81;2086315;28;20058;-65
2023/12/17 04:05:07;;;;;;;;;;;;;;;16.41;66.85;100613.28;2091534;28;20091;-65
2023/12/17 04:06:08;;;;;;;4.05;0.55;;;;;;;16.45;67.04;100605.81;2088911;28;19921;-66
2023/12/17 04:07:10;;;;;;;1.17;0.60;;;;;;;16.50;66.63;100600.88;2085575;28;20124;-65
2023/12/17 04:08:11;;;;;;;2.75;0.90;;;;;;;16.51;66.45;100599.88;2084334;28;20048;-64
2023/12/17 04:09:13;;;;;;;;;;;;;;;16.43;66.78;100597.06;2086818;28;20051;-66
2023/12/17 04:10:14;;;;;;;1.92;0.40;;;;;;;16.50;66.61;100598.19;2089059;28;19927;-66
2023/12/17 04:11:17;;;;;;;;;;;;;;;16.40;66.77;100597.34;2084462;28;20074;-65
2023/12/17 04:12:18;;;;;;;0.88;0.68;;;;;;;16.46;66.75;100602.13;2091088;28;19924;-65
2023/12/17 04:13:19;;;;;;;;;;;;;;;16.38;66.83;100594.84;2087370;28;20525;-66
2023/12/17 04:14:20;;;;;;;1.58;0.80;;;;;;;16.41;66.87;100591.00;2087598;28;19935;-66
2023/12/17 04:15:21;;;;;;;1.52;0.90;;;;;;;16.44;66.60;100588.06;2085258;28;20040;-65
2023/12/17 04:16:23;;;;;;;;;;;;;;;16.35;66.70;100587.06;2087096;28;20993;-66
2023/12/17 04:17:24;;;;;;;1.75;0.57;;;;;;;16.38;66.95;100588.59;2088476;28;19928;-65
2023/12/17 04:18:26;;;;;;;;;;;;;;;16.33;66.94;100586.38;2088076;28;20048;-65
2023/12/17 04:19:27;;;;;;;;;;;;;;;16.29;67.18;100583.09;2085588;28;19935;-65
2023/12/17 04:20:29;;;;;;;2.90;1.00;;;;;;;16.36;66.77;100587.91;2087698;28;19956;-65
2023/12/17 04:21:30;;;;;;;2.08;0.60;;;;;;;16.41;66.71;100588.31;2085100;28;20055;-65
2023/12/17 04:22:31;;;;;;;;;;;;;;;16.34;66.79;100581.84;2085093;28;20072;-65
2023/12/17 04:23:32;;;;;;;;;;;;;;;16.33;66.80;100583.69;2087029;28;19940;-66
2023/12/17 04:24:34;;;;;;;5.57;1.03;;;;;;;16.40;66.88;100592.84;2084488;28;20016;-66
2023/12/17 04:25:35;;;;;;;3.55;0.75;;;;;;;16.47;66.40;100591.28;2084162;28;20302;-66
2023/12/17 04:26:38;;;;;;;;;;;;;;;16.36;67.10;100591.44;2089245;28;20072;-65
2023/12/17 04:27:39;;;;;;;3.53;0.70;;;;;;;16.38;67.16;100596.63;2084855;28;19931;-65
2023/12/17 04:28:41;;;;;;;1.10;0.55;;;;;;;16.43;66.60;100602.41;2088223;28;20460;-65
2023/12/17 04:29:42;;;;;;;5.28;0.70;;;;;;;16.46;66.60;100602.13;2086499;28;20045;-65
2023/12/17 04:30:44;;;;;;;;;;;;;;;16.36;66.66;100606.66;2086294;28;20079;-65
2023/12/17 04:31:45;;;;;;;1.10;0.45;;;;;;;16.37;66.90;100603.00;2090491;28;20795;-66
2023/12/17 04:32:45;;;;;;;;;;;;;;;16.29;66.89;100612.56;2085698;28;20068;-66
2023/12/17 04:33:47;;;;;;;1.17;0.70;;;;;;;16.36;66.84;100614.69;2084677;28;20303;-66
2023/12/17 04:34:48;;;;;;;3.95;1.00;;;;;;;16.38;66.64;100608.22;2083064;28;20052;-65
2023/12/17 04:35:50;;;;;;;4.97;0.75;;;;;;;16.40;66.59;100613.41;2086703;28;20119;-65
2023/12/17 04:36:52;;;;;;;3.20;0.75;;;;;;;16.41;66.75;100605.25;2090825;28;20625;-64
2023/12/17 04:37:53;;;;;;;0.70;0.68;;;;;;;16.46;66.37;100599.47;2083976;28;20052;-65
2023/12/17 04:38:55;;;;;;;;;;;;;;;16.32;66.86;100600.72;2089116;28;20766;-66
2023/12/17 04:39:55;;;;;;;;;;;;;;;16.26;66.95;100610.16;2085184;28;19940;-65
2023/12/17 04:40:58;;;;;;;1.03;0.73;;;;;;;16.29;67.07;100615.25;2085687;28;19999;-66
2023/12/17 04:42:01;;;;;;;2.15;0.93;;;;;;;16.33;66.68;100606.94;2089577;28;20395;-65
2023/12/17 04:43:01;;;;;;;0.68;0.50;;;;;;;16.39;66.38;100609.06;2086282;28;20059;-66
2023/12/17 04:44:03;;;;;;;;;;;;;;;16.30;66.73;100605.41;2086734;28;20060;-66
2023/12/17 04:45:06;;;;;;;1.00;0.50;;;;;;;16.33;66.45;100609.63;2088223;28;20303;-66
2023/12/17 04:46:08;;;;;;;1.58;1.05;;;;;;;16.37;66.31;100608.34;2086307;28;20045;-66
2023/12/17 04:47:09;;;;;;;6.93;0.80;;;;;;;16.38;66.49;100612.72;2086383;28;20059;-65
2023/12/17 04:48:10;;;;;;;;;;;;;;;16.29;66.71;100611.72;2087293;28;20140;-66
2023/12/17 04:49:11;;;;;;;;;;;;;;;16.20;66.88;100608.06;2088300;28;19928;-65
2023/12/17 04:50:13;;;;;;;5.93;1.47;;;;;;;16.24;66.92;100612.16;2089709;28;20796;-65
2023/12/17 04:51:15;;;;;;;1.52;0.65;;;;;;;16.29;67.05;100609.03;2089057;28;20113;-65
2023/12/17 04:52:17;;;;;;;1.85;1.40;;;;;;;16.33;66.70;100601.59;2093251;28;20099;-66
2023/12/17 04:53:18;;;;;;;2.75;0.70;;;;;;;16.32;66.56;100600.72;2088174;28;20040;-66
2023/12/17 04:54:20;;;;;;;;;;;;;;;16.23;66.73;100605.09;2090508;28;20068;-66
2023/12/17 04:55:20;;;;;;;;;;;;;;;16.16;66.86;100601.31;2089704;28;20454;-66
2023/12/17 04:56:22;;;;;;;2.00;0.87;;;;;;;16.20;66.86;100604.53;2088914;28;19977;-66
2023/12/17 04:57:25;;;;;;;3.45;0.70;;;;;;;16.28;66.73;100610.03;2086096;28;20519;-65